Time;durP1;ratioP1;P1;durP2;ratioP2;P2;SDS_P1;SDS_P2;PMS_P1;PMS_P2;Temp;Humidity;BMP_temperature;BMP_pressure;BME280_temperature;BME280_humidity;BME280_pressure;Samples;Min_cycle;Max_cycle;Signal;HPM_P1;HPM_P2
2022/01/27 00:02:44;;;;;;;;;4.00;2.75;;;;;14.87;54.57;102726.56;5034185;28;9547;-67
2022/01/27 00:07:30;;;;;;;;;3.25;3.25;;;;;14.91;54.47;102725.81;5034008;28;9562;-67
2022/01/27 00:10:13;;;;;;;;;3.00;3.00;;;;;14.85;54.50;102726.47;5034320;28;9626;-67
2022/01/27 00:12:41;;;;;;;;;4.00;4.00;;;;;14.86;54.40;102712.50;5033395;28;9809;-66
2022/01/27 00:15:12;;;;;;;;;3.00;3.00;;;;;14.86;54.29;102720.41;5033742;28;9796;-67
2022/01/27 00:17:46;;;;;;;;;3.50;3.50;;;;;14.87;54.26;102730.09;5034062;28;9548;-66
2022/01/27 00:20:13;;;;;;;;;3.00;3.00;;;;;14.91;54.36;102726.72;5033516;28;9693;-66
2022/01/27 00:22:39;;;;;;;;;4.00;3.00;;;;;14.82;54.25;102729.00;5033956;28;9835;-66
2022/01/27 00:25:06;;;;;;;;;4.00;4.00;;;;;14.82;54.44;102729.00;5033012;28;9689;-66
2022/01/27 00:27:32;;;;;;;;;4.50;3.75;;;;;14.87;54.29;102723.91;5033894;28;8775;-66
2022/01/27 00:30:00;;;;;;;;;3.25;3.00;;;;;14.86;54.30;102727.38;5033515;28;9521;-66
2022/01/27 00:32:25;;;;;;;;;3.50;3.50;;;;;14.90;54.26;102705.59;5032263;28;9877;-66
2022/01/27 00:34:50;;;;;;;;;2.75;2.75;;;;;14.86;54.34;102703.72;5033808;28;9567;-66
2022/01/27 00:37:15;;;;;;;;;4.25;4.00;;;;;14.87;54.18;102705.50;5033127;28;8906;-67
2022/01/27 00:39:43;;;;;;;;;2.75;2.75;;;;;14.84;54.40;102715.94;5033046;28;8779;-66
2022/01/27 00:42:08;;;;;;;;;3.75;3.75;;;;;14.86;54.19;102704.63;5033320;28;8921;-67
2022/01/27 00:44:34;;;;;;;;;5.75;3.75;;;;;14.84;54.18;102698.44;5033633;28;9650;-67
2022/01/27 00:46:59;;;;;;;;;5.00;5.00;;;;;14.85;54.17;102715.97;5032784;28;8781;-67
2022/01/27 00:49:25;;;;;;;;;2.00;2.00;;;;;14.87;54.17;102710.78;5032886;28;8783;-67
2022/01/27 00:51:53;;;;;;;;;4.00;4.00;;;;;14.82;54.14;102715.88;5033361;28;8767;-67
2022/01/27 00:54:23;;;;;;;;;4.75;3.75;;;;;14.83;54.25;102717.66;5032342;28;9740;-67
2022/01/27 00:56:55;;;;;;;;;8.00;8.00;;;;;14.75;54.21;102699.84;5033313;28;10294;-67
2022/01/27 00:59:32;;;;;;;;;7.25;4.00;;;;;14.82;54.23;102686.03;5032902;28;9666;-67
2022/01/27 01:02:07;;;;;;;;;3.00;3.00;;;;;14.79;54.09;102672.81;5032879;28;10435;-67
2022/01/27 01:04:37;;;;;;;;;6.25;5.00;;;;;14.82;54.17;102665.91;5033228;28;9615;-67
2022/01/27 01:07:03;;;;;;;;;5.00;5.00;;;;;14.82;54.35;102662.38;5032379;28;9816;-67
2022/01/27 01:14:50;;;;;;;;;6.00;4.00;;;;;14.80;54.25;102659.72;5031906;28;9609;-67
2022/01/27 01:17:31;;;;;;;;;4.00;4.00;;;;;14.79;54.24;102659.66;5032662;28;9698;-66
2022/01/27 01:30:59;;;;;;;;;5.00;4.00;;;;;14.73;54.31;102630.53;5032376;28;9876;-67
2022/01/27 01:33:32;;;;;;;;;5.00;4.00;;;;;14.76;54.17;102628.00;5032198;28;9914;-67
2022/01/27 01:36:13;;;;;;;;;5.00;5.00;;;;;14.71;54.43;102622.59;5031805;28;9693;-67
2022/01/27 01:38:38;;;;;;;;;6.00;5.00;;;;;14.71;54.13;102622.59;5032612;28;9823;-67
2022/01/27 01:41:07;;;;;;;;;3.75;3.75;;;;;14.67;54.40;102615.44;5032395;28;9990;-67
2022/01/27 01:43:32;;;;;;;;;5.00;5.00;;;;;14.69;54.33;102619.03;5030874;28;8806;-66
2022/01/27 01:45:57;;;;;;;;;4.25;3.00;;;;;14.63;54.46;102623.16;5032155;28;9786;-67
2022/01/27 01:48:23;;;;;;;;;4.00;4.00;;;;;14.65;54.50;102632.03;5031986;28;8799;-67
2022/01/27 01:50:49;;;;;;;;;8.25;5.00;;;;;14.62;54.39;102624.91;5031470;28;8811;-67
2022/01/27 01:53:14;;;;;;;;;8.50;5.00;;;;;14.60;54.55;102617.81;5032199;28;8807;-67
2022/01/27 01:55:39;;;;;;;;;6.50;5.25;;;;;14.60;54.69;102597.69;5032286;28;8881;-67
2022/01/27 01:58:05;;;;;;;;;6.25;5.00;;;;;14.58;54.58;102587.97;5031219;28;8886;-67
2022/01/27 02:00:30;;;;;;;;;4.00;4.00;;;;;14.57;54.52;102583.56;5031793;28;8853;-68
2022/01/27 02:02:56;;;;;;;;;5.00;5.00;;;;;14.54;54.78;102597.50;5032110;28;8893;-67
2022/01/27 02:05:27;;;;;;;;;7.00;7.00;;;;;14.52;54.97;102607.94;5031387;28;8799;-67
2022/01/27 02:19:21;;;;;;;;;5.00;5.00;;;;;14.51;54.98;102618.41;5030625;28;10507;-67
2022/01/27 02:21:56;;;;;;;;;2.75;2.75;;;;;14.50;54.96;102617.53;5031847;28;9624;-66
2022/01/27 02:24:23;;;;;;;;;3.75;3.75;;;;;14.54;54.75;102622.88;5031184;28;9830;-66
2022/01/27 02:26:50;;;;;;;;;5.00;5.00;;;;;14.50;54.89;102627.16;5031729;28;9865;-67
2022/01/27 02:29:17;;;;;;;;;7.25;5.75;;;;;14.49;54.89;102628.88;5031117;28;9916;-67
2022/01/27 02:31:43;;;;;;;;;3.25;3.25;;;;;14.49;54.87;102638.50;5030736;28;9939;-67
2022/01/27 02:34:08;;;;;;;;;9.00;6.00;;;;;14.47;54.78;102630.53;5031297;28;9806;-67
2022/01/27 02:36:34;;;;;;;;;9.50;5.00;;;;;14.43;54.90;102626.00;5031461;28;8768;-67
2022/01/27 02:39:00;;;;;;;;;7.25;5.00;;;;;14.41;55.05;102614.56;5030459;28;8775;-67
2022/01/27 02:41:28;;;;;;;;;5.75;5.75;;;;;14.48;54.78;102606.06;5031321;28;8818;-67
2022/01/27 02:43:56;;;;;;;;;4.00;4.00;;;;;14.50;54.65;102604.38;5031536;28;10646;-66
2022/01/27 02:46:29;;;;;;;;;6.00;6.00;;;;;14.48;54.85;102600.78;5030271;28;9853;-67
2022/01/27 02:48:54;;;;;;;;;6.00;5.00;;;;;14.45;54.90;102594.53;5031243;28;9803;-66
2022/01/27 02:51:26;;;;;;;;;6.25;5.75;;;;;14.52;54.53;102586.03;5031005;28;9900;-66
2022/01/27 02:53:51;;;;;;;;;4.25;4.25;;;;;14.53;54.57;102579.94;5030416;28;9693;-66
2022/01/27 02:56:16;;;;;;;;;5.75;5.75;;;;;14.53;54.61;102561.53;5030761;28;9890;-66
2022/01/27 02:58:42;;;;;;;;;3.00;3.00;;;;;14.57;54.43;102557.28;5030891;28;8790;-65
2022/01/27 03:01:09;;;;;;;;;4.50;4.50;;;;;14.52;54.54;102554.47;5030058;28;9575;-65
2022/01/27 03:03:34;;;;;;;;;4.00;4.00;;;;;14.55;54.53;102549.31;5031252;28;8795;-65
2022/01/27 03:05:59;;;;;;;;;4.00;3.25;;;;;14.50;54.63;102543.94;5031076;28;10519;-66
2022/01/27 03:08:25;;;;;;;;;7.00;7.00;;;;;14.48;54.69;102537.72;5030127;28;8787;-67
2022/01/27 03:11:02;;;;;;;;;3.75;3.75;;;;;14.52;55.03;102530.81;5030892;28;8811;-67
2022/01/27 03:13:29;;;;;;;;;6.25;5.00;;;;;14.51;54.62;102540.44;5030593;28;8810;-67
2022/01/27 03:15:55;;;;;;;;;4.25;4.25;;;;;14.57;54.50;102536.25;5030478;28;9879;-67
2022/01/27 03:18:20;;;;;;;;;4.00;3.75;;;;;14.56;54.45;102529.19;5030812;28;9708;-66
2022/01/27 03:20:45;;;;;;;;;6.00;6.00;;;;;14.52;54.60;102530.81;5030365;28;8805;-67
2022/01/27 03:23:11;;;;;;;;;5.25;5.25;;;;;14.51;54.56;102535.19;5030507;28;9625;-67
2022/01/27 03:25:39;;;;;;;;;6.00;5.25;;;;;14.51;54.48;102529.94;5030922;28;8914;-67
2022/01/27 03:28:07;;;;;;;;;4.00;4.00;;;;;14.49;54.71;102518.50;5029552;28;8882;-67
2022/01/27 03:30:32;;;;;;;;;5.75;5.75;;;;;14.53;54.45;102522.13;5030827;28;9587;-66
2022/01/27 03:32:57;;;;;;;;;6.00;6.00;;;;;14.50;54.71;102515.03;5030720;28;9888;-67
2022/01/27 03:35:23;;;;;;;;;9.50;6.25;;;;;14.56;54.70;102500.28;5029888;28;8787;-67
2022/01/27 03:37:48;;;;;;;;;4.75;4.75;;;;;14.54;54.82;102501.97;5030863;28;8763;-66
2022/01/27 03:40:13;;;;;;;;;4.00;4.00;;;;;14.48;54.65;102479.91;5030892;28;8817;-67
2022/01/27 03:42:45;;;;;;;;;4.25;4.25;;;;;14.52;54.47;102480.91;5029848;28;8764;-66
2022/01/27 03:45:11;;;;;;;;;4.50;4.50;;;;;14.49;54.47;102479.06;5030258;28;9538;-66
2022/01/27 03:47:37;;;;;;;;;5.00;3.75;;;;;14.54;54.46;102465.19;5030826;28;9727;-67
2022/01/27 03:50:03;;;;;;;;;4.25;4.25;;;;;14.51;54.50;102471.22;5030153;28;9563;-67
2022/01/27 03:52:28;;;;;;;;;6.00;4.00;;;;;14.56;54.41;102481.88;5030691;28;8775;-67
2022/01/27 03:54:54;;;;;;;;;2.00;2.00;;;;;14.54;54.51;102463.47;5030544;28;9792;-66
2022/01/27 03:57:19;;;;;;;;;4.50;4.25;;;;;14.55;54.46;102470.47;5029404;28;8783;-67
2022/01/27 03:59:44;;;;;;;;;6.00;5.00;;;;;14.51;54.68;102461.59;5030656;28;8827;-67
2022/01/27 04:02:12;;;;;;;;;5.25;5.25;;;;;14.53;54.58;102459.03;5030541;28;8838;-67
2022/01/27 04:04:38;;;;;;;;;4.50;4.50;;;;;14.56;54.49;102452.97;5030067;28;8906;-67
2022/01/27 04:07:03;;;;;;;;;5.00;4.50;;;;;14.56;54.40;102453.88;5031253;28;9477;-67
2022/01/27 04:09:29;;;;;;;;;3.25;3.25;;;;;14.51;54.46;102464.22;5034212;28;8799;-68
2022/01/27 04:11:54;;;;;;;;;4.50;4.50;;;;;14.55;54.45;102466.97;5033208;28;8929;-67
2022/01/27 04:14:19;;;;;;;;;4.25;4.25;;;;;14.57;54.74;102460.03;5033838;28;8759;-65
2022/01/27 04:16:45;;;;;;;;;3.50;3.50;;;;;14.59;54.33;102445.16;5034230;28;8799;-67
2022/01/27 04:19:10;;;;;;;;;5.50;5.50;;;;;14.60;54.39;102457.47;5033158;28;8771;-67
2022/01/27 04:21:36;;;;;;;;;6.00;4.25;;;;;14.57;54.44;102452.13;5033786;28;8787;-68
2022/01/27 04:24:01;;;;;;;;;3.75;3.00;;;;;14.62;54.36;102448.78;5033060;28;8783;-66
2022/01/27 04:26:39;;;;;;;;;4.00;4.00;;;;;14.57;54.61;102450.41;5033635;28;8791;-67
2022/01/27 04:29:05;;;;;;;;;3.00;3.00;;;;;14.54;54.53;102438.91;5033543;28;8872;-67
2022/01/27 04:31:31;;;;;;;;;5.50;5.00;;;;;14.52;54.67;102429.22;5033170;28;9661;-66
2022/01/27 04:33:57;;;;;;;;;3.75;3.75;;;;;14.56;54.65;102445.97;5033687;28;8798;-67
2022/01/27 04:36:41;;;;;;;;;4.00;4.00;;;;;14.57;54.59;102437.25;5033321;28;9703;-66
2022/01/27 04:41:43;;;;;;;;;4.50;4.50;;;;;14.58;54.60;102428.53;5033703;28;9681;-67
2022/01/27 04:44:18;;;;;;;;;3.25;2.25;;;;;14.63;54.45;102428.66;5033411;28;9629;-67
2022/01/27 04:49:11;;;;;;;;;5.25;3.25;;;;;14.64;54.34;102426.09;5033051;28;9551;-67
2022/01/27 04:51:36;;;;;;;;;3.00;3.00;;;;;14.62;54.40;102430.38;5033386;28;8817;-67
2022/01/27 04:54:07;;;;;;;;;5.00;3.00;;;;;14.58;54.39;102425.91;5032714;28;9638;-66
2022/01/27 04:56:35;;;;;;;;;5.00;5.00;;;;;14.56;54.49;102419.69;5033239;28;8798;-66
2022/01/27 04:59:06;;;;;;;;;4.00;4.00;;;;;14.61;54.60;102417.22;5032771;28;9828;-67
2022/01/27 05:01:37;;;;;;;;;4.00;4.00;;;;;14.59;54.62;102421.53;5033136;28;9639;-68
2022/01/27 05:04:08;;;;;;;;;4.25;4.25;;;;;14.60;54.74;102424.22;5032968;28;9793;-66
2022/01/27 05:06:34;;;;;;;;;3.50;3.50;;;;;14.58;54.58;102419.75;5032802;28;9666;-67
2022/01/27 05:08:59;;;;;;;;;4.00;4.00;;;;;14.56;54.81;102410.91;5033027;28;9798;-67
2022/01/27 05:11:29;;;;;;;;;3.50;3.50;;;;;14.60;54.54;102413.69;5032845;28;8831;-66
2022/01/27 05:14:06;;;;;;;;;6.50;6.00;;;;;14.61;54.74;102414.59;5032458;28;8803;-67
2022/01/27 05:16:31;;;;;;;;;3.00;3.00;;;;;14.62;54.55;102416.38;5033212;28;9928;-67
2022/01/27 05:18:57;;;;;;;;;3.00;3.00;;;;;14.60;54.64;102412.78;5033147;28;9793;-66
2022/01/27 05:21:22;;;;;;;;;3.75;3.75;;;;;14.58;54.65;102410.16;5032012;28;9459;-67
2022/01/27 05:23:48;;;;;;;;;2.00;2.00;;;;;14.62;54.63;102419.00;5032863;28;8818;-67
2022/01/27 05:26:14;;;;;;;;;5.00;4.50;;;;;14.59;54.64;102409.28;5032555;28;8787;-67
2022/01/27 05:28:39;;;;;;;;;3.00;3.00;;;;;14.58;54.82;102406.63;5032212;28;8826;-66
2022/01/27 05:31:05;;;;;;;;;4.25;3.50;;;;;14.60;54.74;102407.53;5032138;28;8842;-67
2022/01/27 05:33:33;;;;;;;;;3.50;2.50;;;;;14.61;54.79;102401.44;5032730;28;8793;-67
2022/01/27 05:35:58;;;;;;;;;4.50;3.25;;;;;14.57;54.66;102397.84;5031993;28;8759;-68
2022/01/27 05:38:24;;;;;;;;;6.75;4.00;;;;;14.59;54.64;102401.38;5032594;28;9823;-67
2022/01/27 05:40:49;;;;;;;;;5.75;5.25;;;;;14.59;54.61;102393.50;5032789;28;8787;-67
2022/01/27 05:43:15;;;;;;;;;4.25;4.25;;;;;14.54;54.85;102389.88;5031445;28;8799;-67
2022/01/27 05:45:41;;;;;;;;;5.00;5.00;;;;;14.59;54.76;102389.97;5032449;28;8780;-67
2022/01/27 05:48:07;;;;;;;;;4.75;4.75;;;;;14.58;54.65;102389.13;5031972;28;9511;-67
2022/01/27 05:50:33;;;;;;;;;4.00;4.00;;;;;14.61;54.63;102385.69;5031568;28;9681;-67
2022/01/27 05:52:58;;;;;;;;;3.75;3.75;;;;;14.59;54.80;102382.09;5032243;28;8789;-67
2022/01/27 05:55:24;;;;;;;;;4.00;4.00;;;;;14.60;54.76;102373.38;5031521;28;8893;-68
2022/01/27 05:57:49;;;;;;;;;2.75;2.75;;;;;14.60;54.76;102376.00;5032015;28;9520;-67
2022/01/27 06:00:15;;;;;;;;;3.00;3.00;;;;;14.59;54.85;102371.59;5031293;28;8851;-66
2022/01/27 06:02:40;;;;;;;;;5.00;4.50;;;;;14.60;55.02;102358.50;5031627;28;8803;-67
2022/01/27 06:05:06;;;;;;;;;3.75;3.75;;;;;14.61;54.69;102359.41;5031613;28;9576;-67
2022/01/27 06:07:31;;;;;;;;;8.25;4.00;;;;;14.61;54.75;102354.13;5032164;28;8811;-66
2022/01/27 06:09:57;;;;;;;;;4.50;3.00;;;;;14.60;54.71;102349.72;5031071;28;8884;-66
2022/01/27 06:12:22;;;;;;;;;5.00;4.00;;;;;14.58;54.93;102346.16;5031700;28;9539;-67
2022/01/27 06:14:48;;;;;;;;;3.00;3.00;;;;;14.64;54.66;102360.38;5031623;28;8860;-66
2022/01/27 06:17:13;;;;;;;;;5.00;4.00;;;;;14.53;54.98;102343.41;5030929;28;8768;-66
2022/01/27 06:19:43;;;;;;;;;3.25;3.25;;;;;14.57;54.89;102354.88;5031932;28;8798;-67
2022/01/27 06:22:11;;;;;;;;;3.00;3.00;;;;;14.62;54.80;102353.31;5031563;28;8783;-66
2022/01/27 06:24:38;;;;;;;;;3.50;3.50;;;;;14.61;55.06;102346.25;5030973;28;10586;-66
2022/01/27 06:27:07;;;;;;;;;4.25;2.75;;;;;14.58;55.05;102341.81;5031560;28;9814;-66
2022/01/27 06:29:33;;;;;;;;;3.75;3.75;;;;;14.58;55.09;102346.16;5031196;28;9702;-66
2022/01/27 06:31:58;;;;;;;;;3.00;3.00;;;;;14.57;54.92;102342.66;5030851;28;9793;-67
2022/01/27 06:34:23;;;;;;;;;5.00;3.75;;;;;14.56;54.86;102351.38;5031179;28;8799;-67
2022/01/27 06:36:49;;;;;;;;;3.75;3.75;;;;;14.58;55.06;102347.06;5031298;28;8794;-66
2022/01/27 06:39:14;;;;;;;;;5.25;5.00;;;;;14.61;55.11;102357.66;5030448;28;8803;-66
2022/01/27 06:41:41;;;;;;;;;5.50;3.00;;;;;14.59;55.05;102356.72;5031511;28;9591;-66
2022/01/27 06:44:06;;;;;;;;;4.00;4.00;;;;;14.59;55.07;102361.06;5031206;28;8771;-67
2022/01/27 06:46:35;;;;;;;;;3.25;3.25;;;;;14.59;55.11;102363.69;5030644;28;9700;-65
2022/01/27 06:49:04;;;;;;;;;5.25;3.00;;;;;14.61;55.05;102362.03;5031151;28;8795;-66
2022/01/27 06:51:29;;;;;;;;;4.00;4.00;;;;;14.64;55.34;102363.00;5031313;28;9643;-66
2022/01/27 06:53:55;;;;;;;;;3.25;3.00;;;;;14.60;55.13;102369.00;5030806;28;9827;-66
2022/01/27 06:56:21;;;;;;;;;6.50;5.00;;;;;14.54;55.11;102363.59;5030999;28;8849;-67
2022/01/27 06:58:46;;;;;;;;;3.00;3.00;;;;;14.58;55.16;102368.09;5030522;28;11463;-66
2022/01/27 07:01:11;;;;;;;;;2.00;2.00;;;;;14.56;55.46;102358.34;5030652;28;8846;-66
2022/01/27 07:03:37;;;;;;;;;3.00;3.00;;;;;14.58;55.42;102372.44;5031056;28;8815;-68
2022/01/27 07:06:02;;;;;;;;;4.50;3.25;;;;;14.57;55.43;102370.66;5030518;28;9319;-68
2022/01/27 07:08:27;;;;;;;;;4.75;4.75;;;;;14.55;55.60;102369.75;5030879;28;8869;-67
2022/01/27 07:10:52;;;;;;;;;4.50;4.50;;;;;14.52;55.63;102367.88;5030784;28;8818;-67
2022/01/27 07:13:18;;;;;;;;;6.00;5.00;;;;;14.50;55.73;102377.47;5030102;28;8791;-66
2022/01/27 07:15:43;;;;;;;;;2.50;2.50;;;;;14.49;55.77;102379.22;5031141;28;8791;-67
2022/01/27 07:18:09;;;;;;;;;3.00;3.00;;;;;14.48;55.76;102371.28;5030794;28;9499;-68
2022/01/27 07:20:36;;;;;;;;;2.00;2.00;;;;;14.47;55.74;102370.38;5030489;28;8813;-68
2022/01/27 07:23:01;;;;;;;;;3.50;3.50;;;;;14.47;56.09;102373.00;5030781;28;9570;-67
2022/01/27 07:25:27;;;;;;;;;4.00;4.00;;;;;14.44;56.34;102366.75;5030378;28;9694;-67
2022/01/27 07:27:52;;;;;;;;;3.75;3.50;;;;;14.43;56.63;102379.00;5030123;28;8805;-68
2022/01/27 07:30:17;;;;;;;;;3.00;3.00;;;;;14.42;56.59;102377.25;5030360;28;8888;-67
2022/01/27 07:32:42;;;;;;;;;3.00;3.00;;;;;14.46;56.65;102375.59;5030678;28;8795;-66
2022/01/27 07:35:11;;;;;;;;;2.00;2.00;;;;;14.40;56.98;102378.91;5029856;28;8805;-66
2022/01/27 07:37:37;;;;;;;;;5.00;4.00;;;;;14.40;57.11;102375.41;5030826;28;8779;-66
2022/01/27 07:40:03;;;;;;;;;3.50;3.50;;;;;14.44;56.94;102374.66;5030778;28;10364;-65
2022/01/27 07:42:28;;;;;;;;;3.00;3.00;;;;;14.39;57.32;102376.25;5031225;28;11143;-66
2022/01/27 07:44:54;;;;;;;;;3.00;3.00;;;;;14.34;57.38;102390.94;5034722;28;9841;-66
2022/01/27 07:47:19;;;;;;;;;4.75;4.75;;;;;14.42;57.86;102381.59;5035496;28;8795;-66
2022/01/27 07:49:44;;;;;;;;;3.50;3.50;;;;;14.54;58.17;102387.25;5031930;28;8815;-67
2022/01/27 07:52:09;;;;;;;;;2.25;2.00;;;;;14.52;58.34;102400.31;5033854;28;9464;-67
2022/01/27 07:54:35;;;;;;;;;4.75;4.50;;;;;14.23;59.11;102398.50;5034263;28;8790;-65
2022/01/27 07:57:00;;;;;;;;;4.75;4.00;;;;;13.85;60.42;102409.50;5033238;28;8795;-65
2022/01/27 07:59:25;;;;;;;;;5.00;5.00;;;;;13.82;60.99;102402.44;5033760;28;8771;-67
2022/01/27 08:01:51;;;;;;;;;7.00;6.50;;;;;14.04;60.07;102410.16;5033775;28;8823;-67
2022/01/27 08:04:16;;;;;;;;;5.50;5.00;;;;;14.20;60.06;102400.16;5031566;28;8814;-67
2022/01/27 08:06:48;;;;;;;;;5.75;5.75;;;;;14.26;59.77;102408.19;5033064;28;8844;-67
2022/01/27 08:09:13;;;;;;;;;6.25;5.00;;;;;14.39;60.22;102390.31;5040207;28;8827;-68
2022/01/27 08:11:38;;;;;;;;;4.00;4.00;;;;;14.46;60.22;102397.53;5034302;28;9687;-67
2022/01/27 08:14:06;;;;;;;;;6.00;5.00;;;;;14.56;59.86;102396.03;5032839;28;8822;-68
2022/01/27 08:16:32;;;;;;;;;5.00;5.00;;;;;14.59;59.82;102397.88;5038815;28;8825;-68
2022/01/27 08:18:57;;;;;;;;;5.00;3.25;;;;;14.75;59.19;102400.13;5032204;28;9731;-68
2022/01/27 08:21:25;;;;;;;;;3.50;3.50;;;;;14.85;59.12;102396.88;5031824;28;9245;-67
2022/01/27 08:23:51;;;;;;;;;5.00;4.00;;;;;14.89;59.12;102397.03;5032152;28;8795;-67
2022/01/27 08:26:29;;;;;;;;;4.50;4.50;;;;;14.95;58.93;102398.97;5032526;28;9663;-67
2022/01/27 08:29:07;;;;;;;;;6.00;4.00;;;;;15.14;58.73;102403.91;5032977;28;9514;-67
2022/01/27 08:31:42;;;;;;;;;6.50;5.75;;;;;15.23;58.48;102395.34;5030553;28;9575;-66
2022/01/27 08:34:14;;;;;;;;;10.50;8.50;;;;;15.23;58.83;102385.72;5031482;28;9658;-67
2022/01/27 08:36:42;;;;;;;;;7.00;6.00;;;;;15.22;59.73;102385.69;5032398;28;9803;-67
2022/01/27 08:39:07;;;;;;;;;7.00;7.00;;;;;15.11;61.00;102382.75;5031795;28;9739;-67
2022/01/27 08:41:33;;;;;;;;;10.75;10.50;;;;;14.46;60.91;102421.16;5032318;28;9910;-67
2022/01/27 08:43:58;;;;;;;;;17.25;13.75;;;;;13.95;66.08;102401.97;5035908;28;8913;-67
2022/01/27 08:46:24;;;;;;;;;14.75;14.75;;;;;13.98;66.33;102393.31;5031626;28;10045;-67
2022/01/27 08:48:49;;;;;;;;;11.50;11.50;;;;;14.37;63.58;102384.09;5032478;28;8834;-66
2022/01/27 08:51:20;;;;;;;;;10.50;10.50;;;;;15.24;61.54;102387.50;5030009;28;8858;-66
2022/01/27 08:53:46;;;;;;;;;9.00;9.00;;;;;15.86;59.15;102382.97;5032365;28;8911;-66
2022/01/27 08:56:13;;;;;;;;;12.50;11.00;;;;;16.37;57.99;102386.88;5031714;28;9818;-66
2022/01/27 08:58:38;;;;;;;;;5.00;5.00;;;;;16.91;56.30;102384.53;5031744;28;8842;-66
2022/01/27 09:01:04;;;;;;;;;4.75;4.75;;;;;17.31;55.31;102382.66;5030567;28;9732;-69
2022/01/27 09:03:30;;;;;;;;;5.00;5.00;;;;;17.73;54.17;102388.72;5032341;28;8865;-71
2022/01/27 09:05:55;;;;;;;;;8.25;5.00;;;;;17.06;55.28;102378.66;5031725;28;8947;-71
2022/01/27 09:08:20;;;;;;;;;4.50;4.50;;;;;16.37;57.95;102391.25;5032173;28;8803;-72
2022/01/27 09:10:46;;;;;;;;;4.25;3.75;;;;;16.60;57.67;102387.41;5031940;28;8849;-71
2022/01/27 09:13:12;;;;;;;;;4.00;4.00;;;;;17.10;56.47;102385.78;5029227;28;8833;-71
2022/01/27 09:15:37;;;;;;;;;5.50;4.50;;;;;17.35;55.58;102376.59;5031941;28;8815;-72
2022/01/27 09:18:03;;;;;;;;;3.75;3.00;;;;;17.69;54.87;102372.81;5031816;28;8791;-71
2022/01/27 09:20:29;;;;;;;;;3.00;3.00;;;;;17.77;54.71;102385.28;5031075;28;8834;-71
2022/01/27 09:22:57;;;;;;;;;3.75;3.75;;;;;17.62;55.03;102374.44;5030665;28;8795;-72
2022/01/27 09:25:29;;;;;;;;;4.25;4.25;;;;;17.61;55.19;102380.63;5031254;28;9489;-73
2022/01/27 09:27:56;;;;;;;;;3.50;3.50;;;;;17.54;55.29;102380.44;5031308;28;10498;-73
2022/01/27 09:30:21;;;;;;;;;2.75;2.75;;;;;17.48;55.47;102373.28;5031503;28;9666;-69
2022/01/27 09:32:47;;;;;;;;;5.00;4.50;;;;;17.55;55.27;102374.28;5030331;28;9422;-71
2022/01/27 09:35:15;;;;;;;;;3.50;3.00;;;;;17.51;55.69;102367.19;5030847;28;8864;-74
2022/01/27 09:37:41;;;;;;;;;3.25;3.25;;;;;17.53;55.28;102382.19;5031804;28;8799;-73
2022/01/27 09:40:08;;;;;;;;;7.75;4.00;;;;;17.47;55.69;102375.94;5027343;28;9479;-71
2022/01/27 09:42:36;;;;;;;;;4.00;4.00;;;;;17.39;55.89;102374.03;5024722;28;8803;-72
2022/01/27 09:45:05;;;;;;;;;5.75;4.75;;;;;17.12;56.17;102391.09;5028613;28;10739;-74
2022/01/27 09:47:32;;;;;;;;;7.75;7.75;;;;;15.41;55.88;102391.47;5030442;28;9636;-73
2022/01/27 09:50:09;;;;;;;;;11.50;7.25;;;;;14.46;58.72;102397.53;5030896;28;9841;-70
2022/01/27 09:52:35;;;;;;;;;8.75;7.50;;;;;13.89;60.76;102396.53;5029316;28;9770;-71
2022/01/27 09:55:00;;;;;;;;;9.75;9.75;;;;;13.58;61.63;102396.34;5037820;28;9834;-71
2022/01/27 09:57:26;;;;;;;;;13.00;10.00;;;;;13.42;62.34;102404.53;5030904;28;8815;-69
2022/01/27 09:59:51;;;;;;;;;6.25;6.25;;;;;13.36;62.98;102404.31;5029760;28;8812;-70
2022/01/27 10:02:21;;;;;;;;;9.00;9.00;;;;;13.89;61.82;102406.13;5026438;28;8832;-67
2022/01/27 10:04:57;;;;;;;;;10.25;9.00;;;;;14.88;59.65;102403.13;5028545;28;10303;-68
2022/01/27 10:07:35;;;;;;;;;4.00;4.00;;;;;16.16;55.81;102385.50;5024066;28;9788;-69
2022/01/27 10:10:06;;;;;;;;;5.75;4.00;;;;;16.92;53.58;102398.59;5028894;28;9820;-71
2022/01/27 10:12:37;;;;;;;;;4.00;3.00;;;;;17.42;52.21;102399.59;5030137;28;10246;-70
2022/01/27 10:15:11;;;;;;;;;5.50;5.50;;;;;17.63;52.09;102415.84;5030754;28;10356;-68
2022/01/27 10:17:39;;;;;;;;;3.25;3.25;;;;;17.53;52.24;102386.59;5030215;28;9531;-68
2022/01/27 10:20:18;;;;;;;;;6.00;5.00;;;;;17.20;53.44;102402.69;5030399;28;10367;-68
2022/01/27 10:23:20;;;;;;;;;3.50;3.50;;;;;17.03;54.07;102404.09;5028525;28;9726;-68
2022/01/27 10:25:53;;;;;;;;;4.00;4.00;;;;;17.08;54.10;102418.28;5035710;28;11070;-76
2022/01/27 10:28:45;;;;;;;;;3.75;3.75;;;;;17.11;54.25;102405.16;5031970;28;9500;-68
2022/01/27 10:31:19;;;;;;;;;3.00;3.00;;;;;17.05;54.46;102418.22;5028416;28;9481;-66
2022/01/27 10:33:50;;;;;;;;;3.50;3.50;;;;;17.12;54.37;102414.84;5030806;28;9458;-66
2022/01/27 10:36:30;;;;;;;;;4.00;4.00;;;;;17.32;53.88;102416.13;5030490;28;9604;-66
2022/01/27 10:38:58;;;;;;;;;4.75;4.00;;;;;17.40;54.23;102409.22;5030224;28;10438;-67
2022/01/27 10:41:30;;;;;;;;;2.75;2.50;;;;;17.45;53.98;102404.03;5028922;28;9781;-65
2022/01/27 10:44:17;;;;;;;;;3.00;3.00;;;;;17.47;54.32;102412.91;5029720;28;9737;-69
2022/01/27 10:47:08;;;;;;;;;3.25;2.50;;;;;17.27;55.08;102409.88;5030635;28;9714;-70
2022/01/27 10:49:38;;;;;;;;;5.00;4.00;;;;;17.23;55.16;102414.19;5029861;28;9571;-67
2022/01/27 10:52:05;;;;;;;;;3.75;3.75;;;;;17.27;55.34;102409.88;5028204;28;9689;-66
2022/01/27 10:54:37;;;;;;;;;4.00;4.00;;;;;17.32;55.56;102406.44;5030284;28;9676;-66
2022/01/27 10:57:12;;;;;;;;;4.00;4.00;;;;;17.40;55.55;102410.13;5030522;28;9754;-66
2022/01/27 10:59:39;;;;;;;;;3.00;3.00;;;;;17.40;55.78;102409.22;5029666;28;9844;-66
2022/01/27 11:02:07;;;;;;;;;3.50;3.50;;;;;17.46;55.40;102417.28;5028589;28;9717;-65
2022/01/27 11:04:37;;;;;;;;;3.00;3.00;;;;;17.57;55.16;102406.94;5030276;28;9650;-66
2022/01/27 11:07:05;;;;;;;;;5.00;5.00;;;;;17.63;54.93;102413.22;5029800;28;9705;-66
2022/01/27 11:09:37;;;;;;;;;3.00;3.00;;;;;17.77;54.65;102405.53;5030269;28;10575;-67
2022/01/27 11:12:07;;;;;;;;;2.00;2.00;;;;;17.77;54.35;102402.91;5028247;28;9721;-65
2022/01/27 11:14:36;;;;;;;;;4.00;3.00;;;;;17.78;54.41;102409.94;5029443;28;9776;-65
2022/01/27 11:17:04;;;;;;;;;3.75;3.75;;;;;17.81;54.27;102410.88;5032713;28;9791;-66
2022/01/27 11:22:40;;;;;;;;;4.50;3.00;;;;;17.91;54.11;102406.66;5025205;28;9573;-65
2022/01/27 11:25:49;;;;;;;;;4.00;3.50;;;;;17.84;54.33;102402.13;5035982;28;9609;-65
2022/01/27 11:27:55;;;;;;;;;2.25;2.25;;;;;17.88;54.26;102402.19;5033025;28;9433;-66
2022/01/27 11:30:42;;;;;;;;;3.50;3.50;;;;;17.86;54.13;102392.47;5033820;28;9525;-65
2022/01/27 11:33:14;;;;;;;;;4.50;3.25;;;;;18.07;53.33;102381.38;5031688;28;9559;-66
2022/01/27 11:35:40;;;;;;;;;2.50;2.50;;;;;18.19;53.27;102382.41;5034154;28;9510;-66
2022/01/27 11:38:08;;;;;;;;;2.25;2.25;;;;;18.10;53.26;102392.88;5033197;28;9569;-66
2022/01/27 11:40:35;;;;;;;;;4.25;2.00;;;;;18.04;53.45;102390.13;5033617;28;9431;-66
2022/01/27 11:43:01;;;;;;;;;3.00;3.00;;;;;18.22;53.05;102378.97;5032764;28;9477;-66
2022/01/27 11:45:41;;;;;;;;;2.00;2.00;;;;;18.31;52.55;102387.00;5033562;28;9615;-66
2022/01/27 11:48:13;;;;;;;;;1.50;1.50;;;;;18.34;52.78;102397.63;5046096;28;9534;-66
2022/01/27 11:50:59;;;;;;;;;2.00;2.00;;;;;18.21;53.00;102404.50;5054253;28;9486;-66
2022/01/27 11:53:29;;;;;;;;;3.25;3.25;;;;;18.14;53.38;102400.00;5053999;28;9545;-66
2022/01/27 11:55:54;;;;;;;;;4.00;3.00;;;;;18.25;53.01;102403.69;5053617;28;9657;-67
2022/01/27 11:58:24;;;;;;;;;2.00;2.00;;;;;18.24;53.13;102398.34;5053959;28;9574;-66
2022/01/27 12:01:17;;;;;;;;;4.00;3.00;;;;;18.23;53.00;102402.75;5052531;28;8793;-65
2022/01/27 12:04:06;;;;;;;;;2.00;2.00;;;;;18.18;53.25;102400.94;5033377;28;9490;-65
2022/01/27 12:06:38;;;;;;;;;2.25;2.00;;;;;18.35;53.06;102409.97;5024956;28;9614;-65
2022/01/27 12:09:27;;;;;;;;;2.50;2.00;;;;;18.34;53.39;102411.72;5038278;28;9497;-66
2022/01/27 12:12:07;;;;;;;;;2.00;2.00;;;;;18.43;53.32;102405.69;5026346;28;9443;-65
2022/01/27 12:14:35;;;;;;;;;2.75;2.00;;;;;18.54;52.89;102392.66;5031868;28;9454;-67
2022/01/27 12:17:09;;;;;;;;;1.25;1.25;;;;;18.68;52.39;102406.94;5031061;28;10659;-67